sensor_id;sensor_type;location;lat;lon;timestamp;pressure;altitude;pressure_sealevel;temperature
77385;BMP280;66444;49.680;18.538;2023-07-13T00:04:22;97115.80624107228;;;19.309504114324227
77385;BMP280;66444;49.680;18.538;2023-07-13T00:09:32;97110.76477268481;;;19.32981246165
77385;BMP280;66444;49.680;18.538;2023-07-13T00:14:40;97102.67316057284;;;19.32981246165
77385;BMP280;66444;49.680;18.538;2023-07-13T00:19:48;97116.15919330959;;;19.32981246165
77385;BMP280;66444;49.680;18.538;2023-07-13T00:25:08;97096.45830824172;;;19.360274808015674
77385;BMP280;66444;49.680;18.538;2023-07-13T00:30:18;97093.76098249467;;;19.360274808015674
77385;BMP280;66444;49.680;18.538;2023-07-13T00:35:27;97075.99309130844;;;19.38565993658267
77385;BMP280;66444;49.680;18.538;2023-07-13T00:40:38;97071.71116897008;;;19.411044919630513
77385;BMP280;66444;49.680;18.538;2023-07-13T00:46:10;97070.06492625263;;;19.471968285227195
77385;BMP280;66444;49.680;18.538;2023-07-13T00:51:25;97078.85891379094;;;19.51258339663036
77385;BMP280;66444;49.680;18.538;2023-07-13T00:56:38;97074.98694626856;;;19.522737116273493
77385;BMP280;66444;49.680;18.538;2023-07-13T01:01:49;97081.55688825109;;;19.51258339663036
77385;BMP280;66444;49.680;18.538;2023-07-13T01:06:58;97074.51219494641;;;19.573505365243182
77385;BMP280;66444;49.680;18.538;2023-07-13T01:12:07;97079.08383670486;;;19.603966035228222
77385;BMP280;66444;49.680;18.538;2023-07-13T01:17:16;97082.95660570283;;;19.593812501849605
77385;BMP280;66444;49.680;18.538;2023-07-13T01:22:25;97089.23914977333;;;19.527813967363908
77385;BMP280;66444;49.680;18.538;2023-07-13T01:27:34;97063.84524829486;;;19.502429653704166
77385;BMP280;66444;49.680;18.538;2023-07-13T01:32:47;97044.7360462282;;;19.411044919630513
77385;BMP280;66444;49.680;18.538;2023-07-13T01:37:56;97033.36993985645;;;19.299349905736744
77385;BMP280;66444;49.680;18.538;2023-07-13T01:43:05;97029.97200019234;;;19.25873283855617
77385;BMP280;66444;49.680;18.538;2023-07-13T01:48:13;97053.18855140163;;;19.197806539293378
77385;BMP280;66444;49.680;18.538;2023-07-13T01:53:27;97060.63070915063;;;19.121647486509755
77385;BMP280;66444;49.680;18.538;2023-07-13T01:58:36;97081.13974831399;;;19.06071930131875
77385;BMP280;66444;49.680;18.538;2023-07-13T02:03:44;97105.76311304055;;;18.811920512653888
77385;BMP280;66444;49.680;18.538;2023-07-13T02:08:53;97088.8806622337;;;18.771298975124957
77385;BMP280;66444;49.680;18.538;2023-07-13T02:14:04;97078.81373237747;;;18.811920512653888
77385;BMP280;66444;49.680;18.538;2023-07-13T02:19:13;97076.8300960568;;;18.85254167765379
77385;BMP280;66444;49.680;18.538;2023-07-13T02:24:22;97094.98333070525;;;18.811920512653888
77385;BMP280;66444;49.680;18.538;2023-07-13T02:29:30;97070.9800398956;;;18.90331761003472
77385;BMP280;66444;49.680;18.538;2023-07-13T02:34:40;97045.19761455497;;;18.89316247012466
77385;BMP280;66444;49.680;18.538;2023-07-13T02:39:49;97048.70894053398;;;18.862696910696105
77385;BMP280;66444;49.680;18.538;2023-07-13T02:44:57;97034.06280500306;;;18.872852120455356
77385;BMP280;66444;49.680;18.538;2023-07-13T02:50:06;97046.36813887605;;;18.88300730693154
77385;BMP280;66444;49.680;18.538;2023-07-13T02:55:15;97036.40387276509;;;18.85254167765379
77385;BMP280;66444;49.680;18.538;2023-07-13T03:00:24;97045.65935348172;;;18.84238642132841
77385;BMP280;66444;49.680;18.538;2023-07-13T03:05:33;97034.87926473255;;;18.84238642132841
77385;BMP280;66444;49.680;18.538;2023-07-13T03:10:42;97039.45310783021;;;18.872852120455356
77385;BMP280;66444;49.680;18.538;2023-07-13T03:15:50;97034.1705706892;;;18.80176516319625
77385;BMP280;66444;49.680;18.538;2023-07-13T03:20:59;97023.3912312837;;;18.80176516319625
77385;BMP280;66444;49.680;18.538;2023-07-13T03:26:09;97027.50176868033;;;18.88300730693154
77385;BMP280;66444;49.680;18.538;2023-07-13T03:31:33;97030.14187017069;;;18.91855027624406
77385;BMP280;66444;49.680;18.538;2023-07-13T03:36:45;97029.37968154083;;;18.913472726661713
77385;BMP280;66444;49.680;18.538;2023-07-13T03:41:59;97034.30609106833;;;18.96424796055071
77385;BMP280;66444;49.680;18.538;2023-07-13T03:47:14;97036.88919168226;;;19.035332310106604
77385;BMP280;66444;49.680;18.538;2023-07-13T03:52:23;97040.29027920461;;;19.075951426196845
77385;BMP280;66444;49.680;18.538;2023-07-13T03:57:31;97029.74083942917;;;19.167343075340614
77385;BMP280;66444;49.680;18.538;2023-07-13T04:02:38;97026.45232966698;;;19.289195673866196
77385;BMP280;66444;49.680;18.538;2023-07-13T04:07:45;97025.50429162176;;;19.39073694483377
77385;BMP280;66444;49.680;18.538;2023-07-13T04:12:51;97036.58070116321;;;19.446583651425318
77385;BMP280;66444;49.680;18.538;2023-07-13T04:17:57;97043.7854743562;;;19.51258339663036
77385;BMP280;66444;49.680;18.538;2023-07-13T04:23:04;97025.94438631779;;;19.573505365243182
77385;BMP280;66444;49.680;18.538;2023-07-13T04:28:11;97023.46054247966;;;19.664886746555567
77385;BMP280;66444;49.680;18.538;2023-07-13T04:33:18;97027.82419644462;;;19.801955282408745
77385;BMP280;66444;49.680;18.538;2023-07-13T04:38:31;97031.34922436024;;;19.96947773033753
77385;BMP280;66444;49.680;18.538;2023-07-13T04:43:38;97021.50905782293;;;20.065927173383535
77385;BMP280;66444;49.680;18.538;2023-07-13T04:48:44;97025.50854925993;;;20.182678950903938
77385;BMP280;66444;49.680;18.538;2023-07-13T04:53:50;97015.9191820915;;;20.33495925059542
77385;BMP280;66444;49.680;18.538;2023-07-13T04:58:57;97010.19838079585;;;20.477082803845406
77385;BMP280;66444;49.680;18.538;2023-07-13T05:04:03;97014.59887988518;;;20.57859683362767
77385;BMP280;66444;49.680;18.538;2023-07-13T05:09:10;97008.43817496298;;;20.735938978474586
77385;BMP280;66444;49.680;18.538;2023-07-13T05:14:16;97020.85410588283;;;20.87297435342334
77385;BMP280;66444;49.680;18.538;2023-07-13T05:19:36;97012.90453527984;;;20.964328912645577
77385;BMP280;66444;49.680;18.538;2023-07-13T05:24:42;97015.09642478789;;;21.015080630639567
77385;BMP280;66444;49.680;18.538;2023-07-13T05:29:54;97026.67438972706;;;21.020155770424754
77385;BMP280;66444;49.680;18.538;2023-07-13T05:35:00;97018.2250796592;;;20.999855176359414
77385;BMP280;66444;49.680;18.538;2023-07-13T05:40:10;97021.35348437162;;;20.984629669692367
77385;BMP280;66444;49.680;18.538;2023-07-13T05:45:18;97037.89834889867;;;21.16733229216188
77385;BMP280;66444;49.680;18.538;2023-07-13T05:50:25;97047.68919211146;;;21.268830489460377
77385;BMP280;66444;49.680;18.538;2023-07-13T05:55:32;97056.47557422084;;;21.309429116453977
77385;BMP280;66444;49.680;18.538;2023-07-13T06:00:43;97050.83991575743;;;21.54286399227567
77385;BMP280;66444;49.680;18.538;2023-07-13T06:05:50;97057.19612492777;;;21.766138000553475
77385;BMP280;66444;49.680;18.538;2023-07-13T06:11:01;97048.77537614068;;;21.872696622740477
77385;BMP280;66444;49.680;18.538;2023-07-13T06:16:08;97056.39542540371;;;22.050288622034714
77385;BMP280;66444;49.680;18.538;2023-07-13T06:21:21;97045.4701500764;;;22.212652210099623
77385;BMP280;66444;49.680;18.538;2023-07-13T06:26:28;97053.9338371727;;;22.359789063315837
77385;BMP280;66444;49.680;18.538;2023-07-13T06:31:35;97055.23615864471;;;22.44096592133865
77385;BMP280;66444;49.680;18.538;2023-07-13T06:36:42;97060.97938815308;;;22.588095178455113
77385;BMP280;66444;49.680;18.538;2023-07-13T06:41:48;97056.39952329859;;;22.811316427309066
77385;BMP280;66444;49.680;18.538;2023-07-13T06:46:55;97065.15700891588;;;22.97872496866621
77385;BMP280;66444;49.680;18.538;2023-07-13T06:52:02;97076.65191649842;;;23.019307902874424
77385;BMP280;66444;49.680;18.538;2023-07-13T06:57:09;97087.79646751902;;;23.166417916538194
77385;BMP280;66444;49.680;18.538;2023-07-13T07:02:15;97093.38770422543;;;23.349030433548613
77385;BMP280;66444;49.680;18.538;2023-07-13T07:07:23;97094.1002010294;;;23.480912559852005
77385;BMP280;66444;49.680;18.538;2023-07-13T07:12:35;97095.17632795502;;;23.50627405610867
77385;BMP280;66444;49.680;18.538;2023-07-13T07:17:41;97116.91831500217;;;23.724376916885376
77385;BMP280;66444;49.680;18.538;2023-07-13T07:22:49;97098.33907029414;;;23.927253636531532
77385;BMP280;66444;49.680;18.538;2023-07-13T07:27:55;97103.34852350054;;;24.25183701645583
77385;BMP280;66444;49.680;18.538;2023-07-13T07:33:01;97107.42105552112;;;24.606822788855062
77385;BMP280;66444;49.680;18.538;2023-07-13T07:38:08;97102.03269526972;;;24.789375794352964
77385;BMP280;66444;49.680;18.538;2023-07-13T07:43:14;97112.58234833163;;;24.677816520724445
77385;BMP280;66444;49.680;18.538;2023-07-13T07:48:31;97112.24276283386;;;24.566254429845138
77385;BMP280;66444;49.680;18.538;2023-07-13T07:53:37;97104.94395173153;;;24.444547117641196
77385;BMP280;66444;49.680;18.538;2023-07-13T07:58:44;97108.78580566557;;;24.25183701645583
77385;BMP280;66444;49.680;18.538;2023-07-13T08:03:51;97098.33907029414;;;23.927253636531532
77385;BMP280;66444;49.680;18.538;2023-07-13T08:08:58;97095.18758478343;;;23.724376916885376
77385;BMP280;66444;49.680;18.538;2023-07-13T08:14:04;97091.27097435005;;;23.734520974056796
77385;BMP280;66444;49.680;18.538;2023-07-13T08:19:11;97091.01459488858;;;23.58742986624129
77385;BMP280;66444;49.680;18.538;2023-07-13T08:24:17;97088.9873364475;;;23.501201768498866
77385;BMP280;66444;49.680;18.538;2023-07-13T08:29:27;97089.232329456;;;23.43018913078122
77385;BMP280;66444;49.680;18.538;2023-07-13T08:34:33;97079.81426997675;;;23.349030433548613
77385;BMP280;66444;49.680;18.538;2023-07-13T08:39:40;97095.38208206976;;;23.217144372407347
77385;BMP280;66444;49.680;18.538;2023-07-13T08:44:49;97100.97711523401;;;22.927995777036994
77385;BMP280;66444;49.680;18.538;2023-07-13T08:50:04;97096.98278462105;;;22.466333383880556
77385;BMP280;66444;49.680;18.538;2023-07-13T08:55:18;97103.89356197132;;;22.222799736447634
77385;BMP280;66444;49.680;18.538;2023-07-13T09:00:31;97108.39525012748;;;21.99954877840355
77385;BMP280;66444;49.680;18.538;2023-07-13T09:05:45;97140.5005588019;;;21.563162095053123
77385;BMP280;66444;49.680;18.538;2023-07-13T09:10:59;97148.96036936004;;;20.933877602452412
77385;BMP280;66444;49.680;18.538;2023-07-13T09:16:16;97155.84573312286;;;20.223287543049082
77385;BMP280;66444;49.680;18.538;2023-07-13T09:21:24;97147.35308014932;;;19.807031813357025
77385;BMP280;66444;49.680;18.538;2023-07-13T09:26:36;97152.99548031912;;;19.664886746555567
77385;BMP280;66444;49.680;18.538;2023-07-13T09:31:43;97176.34084209803;;;19.53289081263356
77385;BMP280;66444;49.680;18.538;2023-07-13T09:37:00;97191.52231935994;;;19.436429757159203
77385;BMP280;66444;49.680;18.538;2023-07-13T09:42:07;97190.00426984316;;;19.15718854079023
77385;BMP280;66444;49.680;18.538;2023-07-13T09:47:22;97212.38849013424;;;19.126724797440694
77385;BMP280;66444;49.680;18.538;2023-07-13T09:52:39;97224.34336489391;;;18.811920512653888
77385;BMP280;66444;49.680;18.538;2023-07-13T09:57:48;97230.70214169032;;;18.639276405377313
77385;BMP280;66444;49.680;18.538;2023-07-13T10:02:58;97256.19145656277;;;18.558029791293666
77385;BMP280;66444;49.680;18.538;2023-07-13T10:08:16;97272.12911518726;;;18.395532092778012
77385;BMP280;66444;49.680;18.538;2023-07-13T10:13:26;97295.81448747384;;;18.141617506276816
77385;BMP280;66444;49.680;18.538;2023-07-13T10:18:39;97314.81262462729;;;17.928318007895722
77385;BMP280;66444;49.680;18.538;2023-07-13T10:23:51;97311.37943308396;;;17.88768836786039
77385;BMP280;66444;49.680;18.538;2023-07-13T10:29:04;97320.5662157456;;;17.948632688215003
77385;BMP280;66444;49.680;18.538;2023-07-13T10:34:16;97329.33357663525;;;18.06036176523194
77385;BMP280;66444;49.680;18.538;2023-07-13T10:39:23;97332.02546832085;;;18.06036176523194
77385;BMP280;66444;49.680;18.538;2023-07-13T10:44:33;97335.82803943138;;;18.12130371071398
77385;BMP280;66444;49.680;18.538;2023-07-13T10:49:40;97340.42130295798;;;18.151774369133637
77385;BMP280;66444;49.680;18.538;2023-07-13T10:54:48;97334.92806483261;;;18.29396800440736
77385;BMP280;66444;49.680;18.538;2023-07-13T11:00:12;97337.87156054453;;;18.456469428213314
77385;BMP280;66444;49.680;18.538;2023-07-13T11:05:25;97332.42141871018;;;18.527561926841734
77385;BMP280;66444;49.680;18.538;2023-07-13T11:10:46;97327.63004873709;;;18.710365970339627
77385;BMP280;66444;49.680;18.538;2023-07-13T11:15:56;97328.69826262596;;;19.14703398295678
77385;BMP280;66444;49.680;18.538;2023-07-13T11:21:19;97337.42287241836;;;19.563351762015373
77385;BMP280;66444;49.680;18.538;2023-07-13T11:26:43;97344.76638006924;;;19.82733787894249
77385;BMP280;66444;49.680;18.538;2023-07-13T11:31:58;97340.79047374133;;;19.90856120996177
77385;BMP280;66444;49.680;18.538;2023-07-13T11:37:10;97340.07914953344;;;19.867949730716646
77385;BMP280;66444;49.680;18.538;2023-07-13T11:42:22;97337.5846269411;;;19.725806619692595
77385;BMP280;66444;49.680;18.538;2023-07-13T11:47:28;97333.09915728579;;;19.893331948900595
77385;BMP280;66444;49.680;18.538;2023-07-13T11:52:36;97330.01224512099;;;20.375566445756704
77385;BMP280;66444;49.680;18.538;2023-07-13T11:57:44;97315.77450386113;;;20.568445535423233
77385;BMP280;66444;49.680;18.538;2023-07-13T12:03:00;97326.5856792862;;;20.568445535423233
77385;BMP280;66444;49.680;18.538;2023-07-13T12:08:09;97319.08068048302;;;20.446628140890972
77385;BMP280;66444;49.680;18.538;2023-07-13T12:13:17;97331.86303199755;;;20.63950413390994
77385;BMP280;66444;49.680;18.538;2023-07-13T12:18:28;97334.08721117985;;;20.69025957719423
77385;BMP280;66444;49.680;18.538;2023-07-13T12:23:37;97320.0893290167;;;20.74101443840191
77385;BMP280;66444;49.680;18.538;2023-07-13T12:28:45;97336.44152784455;;;20.669957469729706
77385;BMP280;66444;49.680;18.538;2023-07-13T12:33:56;97348.33232852463;;;20.497385796066375
77385;BMP280;66444;49.680;18.538;2023-07-13T12:39:12;97341.04985391155;;;20.466931272810324
77385;BMP280;66444;49.680;18.538;2023-07-13T12:44:24;97354.38903626647;;;20.34003517036326
77385;BMP280;66444;49.680;18.538;2023-07-13T12:49:34;97348.57403382598;;;20.35526289474219
77385;BMP280;66444;49.680;18.538;2023-07-13T12:54:55;97350.8645254433;;;20.370490566734226
77385;BMP280;66444;49.680;18.538;2023-07-13T13:00:20;97334.59218390775;;;20.40602159765549
77385;BMP280;66444;49.680;18.538;2023-07-13T13:05:30;97330.95526212723;;;20.274047759361565
77385;BMP280;66444;49.680;18.538;2023-07-13T13:10:43;97340.58682768277;;;20.28419973277487
77385;BMP280;66444;49.680;18.538;2023-07-13T13:15:50;97344.81544503775;;;20.29435168290511
77385;BMP280;66444;49.680;18.538;2023-07-13T13:20:57;97340.93916079581;;;20.30450360975228
77385;BMP280;66444;49.680;18.538;2023-07-13T13:26:07;97341.1706076173;;;20.162374515132978
77385;BMP280;66444;49.680;18.538;2023-07-13T13:31:17;97361.00639592092;;;20.060850939294323
77385;BMP280;66444;49.680;18.538;2023-07-13T13:36:23;97359.12359899053;;;20.030393412522972
77385;BMP280;66444;49.680;18.538;2023-07-13T13:41:30;97354.09473248749;;;20.28419973277487
77385;BMP280;66444;49.680;18.538;2023-07-13T13:46:37;97350.43498768444;;;20.619201793614774
77385;BMP280;66444;49.680;18.538;2023-07-13T13:51:51;97343.26513217068;;;21.507342088315635
77385;BMP280;66444;49.680;18.538;2023-07-13T13:56:59;97339.99165010432;;;22.243094719294458
77385;BMP280;66444;49.680;18.538;2023-07-13T14:02:11;97324.86104621991;;;22.973652075696737
77385;BMP280;66444;49.680;18.538;2023-07-13T14:07:28;97326.71208781772;;;23.00408934620209
77385;BMP280;66444;49.680;18.538;2023-07-13T14:12:35;97326.42771229953;;;23.49105717581697
77385;BMP280;66444;49.680;18.538;2023-07-13T14:17:48;97328.48841746399;;;23.323668035073204
77385;BMP280;66444;49.680;18.538;2023-07-13T14:22:55;97346.10421284738;;;22.862046957714483
77385;BMP280;66444;49.680;18.538;2023-07-13T14:28:10;97355.63657305294;;;23.323668035073204
77385;BMP280;66444;49.680;18.538;2023-07-13T14:33:25;97355.7930886403;;;24.70317114847712
77385;BMP280;66444;49.680;18.538;2023-07-13T14:38:32;97357.75819589148;;;25.22544410508126
77385;BMP280;66444;49.680;18.538;2023-07-13T14:43:39;97354.01700146044;;;24.545970110641793
77385;BMP280;66444;49.680;18.538;2023-07-13T14:48:46;97346.27590843537;;;24.312693745922296
77385;BMP280;66444;49.680;18.538;2023-07-13T14:53:53;97351.6114826205;;;25.894674507249146
77385;BMP280;66444;49.680;18.538;2023-07-13T14:59:00;97336.58780335971;;;27.182150693098084
77385;BMP280;66444;49.680;18.538;2023-07-13T15:04:08;97331.02210952052;;;26.43201337675564
77385;BMP280;66444;49.680;18.538;2023-07-13T15:09:15;97340.06578475259;;;27.51663028197363
77385;BMP280;66444;49.680;18.538;2023-07-13T15:14:22;97332.26696608413;;;29.300093200523406
77385;BMP280;66444;49.680;18.538;2023-07-13T15:19:29;97337.76695437542;;;28.656711050355806
77385;BMP280;66444;49.680;18.538;2023-07-13T15:24:38;97332.37992371585;;;27.080788236064837
77385;BMP280;66444;49.680;18.538;2023-07-13T15:29:45;97328.79221530158;;;28.357785042049365
77385;BMP280;66444;49.680;18.538;2023-07-13T15:34:57;97323.22946798072;;;28.59591418164782
77385;BMP280;66444;49.680;18.538;2023-07-13T15:40:12;97331.72569221076;;;28.61617989768274
77385;BMP280;66444;49.680;18.538;2023-07-13T15:45:21;97327.761085179;;;29.472321309288965
77385;BMP280;66444;49.680;18.538;2023-07-13T15:50:30;97338.266436738;;;30.151037160586565
77385;BMP280;66444;49.680;18.538;2023-07-13T15:55:47;97343.75568037538;;;30.151037160586565
77385;BMP280;66444;49.680;18.538;2023-07-13T16:00:55;97351.78606056162;;;30.758753692079335
77385;BMP280;66444;49.680;18.538;2023-07-13T16:06:02;97371.61295076118;;;31.816993196913973
77385;BMP280;66444;49.680;18.538;2023-07-13T16:11:12;97361.87001231416;;;31.862557608960195
77385;BMP280;66444;49.680;18.538;2023-07-13T16:16:29;97364.08481492623;;;30.029483796004207
77385;BMP280;66444;49.680;18.538;2023-07-13T16:21:39;97381.66940927567;;;28.859361225785687
77385;BMP280;66444;49.680;18.538;2023-07-13T16:26:48;97391.86121215303;;;28.56044895448722
77385;BMP280;66444;49.680;18.538;2023-07-13T16:31:56;97395.90324498605;;;27.597712424490602
77385;BMP280;66444;49.680;18.538;2023-07-13T16:37:12;97393.40913075075;;;26.959150214260443
77385;BMP280;66444;49.680;18.538;2023-07-13T16:42:22;97383.34518652856;;;28.39325189902447
77385;BMP280;66444;49.680;18.538;2023-07-13T16:47:29;97371.64471982417;;;29.674933998985217
77385;BMP280;66444;49.680;18.538;2023-07-13T16:52:37;97361.41462892675;;;30.34348979764618
77385;BMP280;66444;49.680;18.538;2023-07-13T16:57:45;97362.68544674237;;;30.64734526942484
77385;BMP280;66444;49.680;18.538;2023-07-13T17:02:52;97367.6820500695;;;30.976498383656143
77385;BMP280;66444;49.680;18.538;2023-07-13T17:08:10;97363.16383844113;;;30.94611604954116
77385;BMP280;66444;49.680;18.538;2023-07-13T17:13:20;97363.30608629421;;;30.799265147279947
77385;BMP280;66444;49.680;18.538;2023-07-13T17:18:28;97369.58987585158;;;30.546062440471722
77385;BMP280;66444;49.680;18.538;2023-07-13T17:23:37;97364.78315018413;;;29.57362881829031
77385;BMP280;66444;49.680;18.538;2023-07-13T17:28:44;97370.90447564072;;;28.82389811738394
77385;BMP280;66444;49.680;18.538;2023-07-13T17:33:51;97375.31912600248;;;27.972697950480505
77385;BMP280;66444;49.680;18.538;2023-07-13T17:38:59;97382.95514158891;;;27.364597248425707
77385;BMP280;66444;49.680;18.538;2023-07-13T17:44:06;97382.39394052542;;;26.62969706864096
77385;BMP280;66444;49.680;18.538;2023-07-13T17:49:15;97384.24859647073;;;25.6209106921684
77385;BMP280;66444;49.680;18.538;2023-07-13T17:54:25;97400.97726910567;;;24.895861563831566
77385;BMP280;66444;49.680;18.538;2023-07-13T17:59:32;97410.30175753728;;;24.449618322588503
77385;BMP280;66444;49.680;18.538;2023-07-13T18:04:39;97413.97775930355;;;24.038831862574444
77385;BMP280;66444;49.680;18.538;2023-07-13T18:09:46;97427.88952708904;;;23.5519243826624
77385;BMP280;66444;49.680;18.538;2023-07-13T18:14:53;97425.86138852565;;;23.176563254278154
77385;BMP280;66444;49.680;18.538;2023-07-13T18:20:08;97436.05572893847;;;22.846827859710903
77385;BMP280;66444;49.680;18.538;2023-07-13T18:25:22;97437.0298535979;;;22.618535103229807
77385;BMP280;66444;49.680;18.538;2023-07-13T18:30:31;97439.76032177468;;;22.293831768957897
77385;BMP280;66444;49.680;18.538;2023-07-13T18:35:43;97453.77655089609;;;21.918363817874344
77385;BMP280;66444;49.680;18.538;2023-07-13T18:40:51;97424.40020991872;;;21.54286399227567
77385;BMP280;66444;49.680;18.538;2023-07-13T18:45:58;97425.03842547035;;;21.223156588803977
77385;BMP280;66444;49.680;18.538;2023-07-13T18:51:13;97438.67698010532;;;20.95417849919759
77385;BMP280;66444;49.680;18.538;2023-07-13T18:56:21;97430.58506421598;;;20.72071256376803
77385;BMP280;66444;49.680;18.538;2023-07-13T19:01:30;97435.63436388463;;;20.466931272810324
77385;BMP280;66444;49.680;18.538;2023-07-13T19:06:38;97442.2831650631;;;20.1522222623229
77385;BMP280;66444;49.680;18.538;2023-07-13T19:11:52;97443.39001041131;;;19.90856120996177
77385;BMP280;66444;49.680;18.538;2023-07-13T19:16:59;97442.04375089814;;;19.756266241939738
77385;BMP280;66444;49.680;18.538;2023-07-13T19:22:07;97468.44053321626;;;19.609042793186383
77385;BMP280;66444;49.680;18.538;2023-07-13T19:27:20;97460.21881400078;;;19.37550590261817
77385;BMP280;66444;49.680;18.538;2023-07-13T19:32:27;97466.52525798294;;;19.238424165267496
77385;BMP280;66444;49.680;18.538;2023-07-13T19:37:35;97464.39755968275;;;19.04548712405376
77385;BMP280;66444;49.680;18.538;2023-07-13T19:42:43;97455.27172067584;;;18.913472726661713
77385;BMP280;66444;49.680;18.538;2023-07-13T19:47:50;97452.26901772304;;;18.82207583882846
77385;BMP280;66444;49.680;18.538;2023-07-13T19:52:57;97458.11433265539;;;18.73575482419692
77385;BMP280;66444;49.680;18.538;2023-07-13T19:58:04;97467.07113402312;;;18.598653284600005
77385;BMP280;66444;49.680;18.538;2023-07-13T20:03:14;97469.46722901026;;;18.4717036311049
77385;BMP280;66444;49.680;18.538;2023-07-13T20:08:25;97461.03765001331;;;18.41584463105537
77385;BMP280;66444;49.680;18.538;2023-07-13T20:13:35;97468.043748259;;;18.28381146751344
77385;BMP280;66444;49.680;18.538;2023-07-13T20:18:45;97468.86927600279;;;18.18224481800571
77385;BMP280;66444;49.680;18.538;2023-07-13T20:23:57;97471.22349733755;;;18.09083284274675
77385;BMP280;66444;49.680;18.538;2023-07-13T20:29:07;97476.65634048173;;;17.98418315467425
77385;BMP280;66444;49.680;18.538;2023-07-13T20:34:18;97482.08240410508;;;17.877530899643897
77385;BMP280;66444;49.680;18.538;2023-07-13T20:39:31;97482.88725175781;;;17.77595493691042
77385;BMP280;66444;49.680;18.538;2023-07-13T20:44:41;97495.20625802097;;;17.715008241683243
77385;BMP280;66444;49.680;18.538;2023-07-13T20:49:51;97503.29616536516;;;17.643902704538778
77385;BMP280;66444;49.680;18.538;2023-07-13T20:55:07;97516.0007509338;;;17.532163126859814
77385;BMP280;66444;49.680;18.538;2023-07-13T21:00:23;97519.8553717745;;;17.45089620994404
77385;BMP280;66444;49.680;18.538;2023-07-13T21:05:35;97514.48124175443;;;17.41534146522172
77385;BMP280;66444;49.680;18.538;2023-07-13T21:10:52;97506.8111352961;;;17.29343731799163
77385;BMP280;66444;49.680;18.538;2023-07-13T21:16:13;97514.49883685388;;;17.16645026607439
77385;BMP280;66444;49.680;18.538;2023-07-13T21:21:26;97522.55955538808;;;17.02422044891864
77385;BMP280;66444;49.680;18.538;2023-07-13T21:26:37;97516.41425958293;;;16.983582520112396
77385;BMP280;66444;49.680;18.538;2023-07-13T21:31:47;97507.58187045177;;;16.94294421877712
77385;BMP280;66444;49.680;18.538;2023-07-13T21:36:57;97498.36144760298;;;16.84642676007934
77385;BMP280;66444;49.680;18.538;2023-07-13T21:42:08;97501.80826962751;;;16.78038728814572
77385;BMP280;66444;49.680;18.538;2023-07-13T21:47:21;97492.96569993871;;;16.668625940801576
77385;BMP280;66444;49.680;18.538;2023-07-13T21:52:32;97496.7876377901;;;16.587343191402034
77385;BMP280;66444;49.680;18.538;2023-07-13T21:57:49;97488.34991260372;;;16.602583820419387
77385;BMP280;66444;49.680;18.538;2023-07-13T22:03:01;97482.94917490576;;;16.460335912322627
77385;BMP280;66444;49.680;18.538;2023-07-13T22:08:26;97483.69967423633;;;16.394290689472108
77385;BMP280;66444;49.680;18.538;2023-07-13T22:13:39;97486.75366041361;;;16.343486002506687
77385;BMP280;66444;49.680;18.538;2023-07-13T22:18:50;97484.82705767074;;;16.313002910930663
77385;BMP280;66444;49.680;18.538;2023-07-13T22:24:02;97493.24722106598;;;16.262197292642668
77385;BMP280;66444;49.680;18.538;2023-07-13T22:29:15;97490.53810572406;;;16.19106844915077